Time;durP1;ratioP1;P1;durP2;ratioP2;P2;SDS_P1;SDS_P2;PMS_P1;PMS_P2;Temp;Humidity;BMP_temperature;BMP_pressure;BME280_temperature;BME280_humidity;BME280_pressure;Samples;Min_cycle;Max_cycle;Signal;HPM_P1;HPM_P2
2021/04/16 00:02:15;;;;;;;6.45;2.63;;;;;;;4.66;65.39;102630.69;6256838;28;20129;-80
2021/04/16 00:05:16;;;;;;;6.65;2.83;;;;;;;4.49;68.16;102626.31;6256131;28;20049;-80
2021/04/16 00:08:24;;;;;;;6.28;2.80;;;;;;;4.47;65.42;102632.41;6257251;28;20417;-80
2021/04/16 00:11:27;;;;;;;4.43;2.47;;;;;;;4.43;66.41;102635.84;6256563;28;20133;-80
2021/04/16 00:14:28;;;;;;;9.93;2.75;;;;;;;4.41;67.26;102637.59;6257733;28;20057;-81
2021/04/16 00:17:29;;;;;;;5.60;2.65;;;;;;;4.39;67.25;102632.38;6255764;28;20060;-81
2021/04/16 00:20:31;;;;;;;4.75;2.70;;;;;;;4.31;69.23;102629.78;6255148;28;20100;-81
2021/04/16 00:23:31;;;;;;;6.07;2.92;;;;;;;4.32;68.73;102633.25;6255411;28;20056;-81
2021/04/16 00:26:33;;;;;;;10.68;3.45;;;;;;;4.30;69.11;102627.13;6256458;28;20053;-81
2021/04/16 00:29:34;;;;;;;8.57;3.40;;;;;;;4.31;67.53;102623.66;6256240;28;20606;-80
2021/04/16 00:32:35;;;;;;;5.78;2.95;;;;;;;4.38;67.96;102627.16;6254899;28;20057;-81
2021/04/16 00:35:37;;;;;;;6.22;2.70;;;;;;;4.26;66.31;102626.25;6256954;28;20049;-81
2021/04/16 00:38:38;;;;;;;6.93;3.13;;;;;;;4.24;68.89;102627.13;6256032;28;20061;-81
2021/04/16 00:41:40;;;;;;;4.85;2.58;;;;;;;4.27;67.89;102621.91;6257032;28;20053;-80
2021/04/16 00:44:41;;;;;;;6.45;2.60;;;;;;;4.42;65.67;102615.91;6255856;28;20060;-81
2021/04/16 00:47:42;;;;;;;5.90;3.13;;;;;;;4.28;67.90;102621.06;6255949;28;20080;-81
2021/04/16 00:50:47;;;;;;;7.40;2.92;;;;;;;4.28;68.75;102615.88;6256390;28;20060;-81
2021/04/16 00:53:49;;;;;;;6.80;2.78;;;;;;;4.41;66.49;102609.84;6257218;28;20041;-81
2021/04/16 00:56:52;;;;;;;4.90;3.03;;;;;;;4.31;65.94;102608.94;6255366;28;20045;-81
2021/04/16 00:59:56;;;;;;;4.15;2.70;;;;;;;4.30;66.31;102615.00;6254897;28;20421;-81
2021/04/16 01:02:57;;;;;;;7.13;2.90;;;;;;;4.28;65.89;102610.66;6256270;28;20127;-80
2021/04/16 01:06:03;;;;;;;6.20;2.33;;;;;;;4.24;67.17;102620.19;6255813;28;20053;-81
2021/04/16 01:09:05;;;;;;;4.28;2.42;;;;;;;4.25;68.44;102614.13;6255908;28;20536;-80
2021/04/16 01:12:09;;;;;;;5.75;2.65;;;;;;;4.29;67.86;102622.81;6256625;28;20052;-81
2021/04/16 01:15:17;;;;;;;7.75;3.08;;;;;;;4.30;67.31;102619.34;6255850;28;20052;-80
2021/04/16 01:18:21;;;;;;;3.20;2.22;;;;;;;4.34;68.30;102615.88;6249224;28;20498;-81
2021/04/16 01:21:28;;;;;;;4.85;2.40;;;;;;;4.32;66.39;102615.03;6244201;28;20487;-81
2021/04/16 01:24:33;;;;;;;3.55;1.77;;;;;;;4.42;64.41;102605.50;6243921;28;20496;-80
2021/04/16 01:27:34;;;;;;;6.70;2.92;;;;;;;4.28;66.51;102610.66;6239858;28;20477;-81
2021/04/16 01:30:35;;;;;;;6.13;2.50;;;;;;;4.29;67.93;102609.78;6231820;28;20096;-81
2021/04/16 01:33:37;;;;;;;3.80;2.08;;;;;;;4.28;64.31;102608.94;6230219;28;20814;-81
2021/04/16 01:36:38;;;;;;;4.00;2.65;;;;;;;4.23;67.20;102607.19;6236199;28;20049;-81
2021/04/16 01:39:40;;;;;;;3.35;2.03;;;;;;;4.22;65.67;102602.81;6231090;28;20125;-80
2021/04/16 01:42:41;;;;;;;5.30;2.40;;;;;;;4.25;66.44;102592.44;6231910;28;20057;-81
2021/04/16 01:45:42;;;;;;;5.55;2.33;;;;;;;4.33;63.82;102601.13;6241208;28;20046;-81
2021/04/16 01:48:45;;;;;;;3.58;2.30;;;;;;;4.46;64.25;102587.28;6256191;28;20049;-80
2021/04/16 01:51:47;;;;;;;7.30;2.90;;;;;;;4.29;65.27;102595.03;6254533;28;20539;-81
2021/04/16 01:54:51;;;;;;;5.85;2.40;;;;;;;4.39;63.86;102593.31;6254875;28;20057;-79
2021/04/16 01:57:52;;;;;;;5.15;3.58;;;;;;;4.26;64.99;102586.34;6254789;28;20053;-79
2021/04/16 02:00:56;;;;;;;3.90;1.77;;;;;;;4.32;65.26;102594.19;6254276;28;20133;-78
2021/04/16 02:03:57;;;;;;;4.22;2.50;;;;;;;4.19;67.44;102595.91;6252377;28;20509;-78
2021/04/16 02:06:58;;;;;;;5.72;2.72;;;;;;;4.17;69.69;102591.53;6252571;28;20084;-78
2021/04/16 02:10:00;;;;;;;5.30;2.20;;;;;;;4.25;68.00;102587.22;6254363;28;20564;-81
2021/04/16 02:13:01;;;;;;;4.13;2.30;;;;;;;4.27;66.50;102595.88;6253670;28;20056;-79
2021/04/16 02:16:02;;;;;;;8.60;2.45;;;;;;;4.27;67.24;102588.09;6254361;28;20481;-78
2021/04/16 02:19:05;;;;;;;6.60;2.22;;;;;;;4.20;67.59;102587.22;6254543;28;20128;-81
2021/04/16 02:22:07;;;;;;;5.80;2.25;;;;;;;4.24;66.57;102588.09;6254587;28;20053;-80
2021/04/16 02:25:10;;;;;;;3.60;2.08;;;;;;;4.32;65.83;102584.66;6254122;28;20049;-80
2021/04/16 02:28:11;;;;;;;6.32;2.10;;;;;;;4.22;67.24;102585.47;6253067;28;20383;-80
2021/04/16 02:31:12;;;;;;;3.38;1.90;;;;;;;4.35;65.80;102582.91;6253116;28;20053;-79
2021/04/16 02:34:15;;;;;;;3.22;2.13;;;;;;;4.23;66.62;102581.16;6253505;28;20049;-81
2021/04/16 02:37:20;;;;;;;3.67;2.22;;;;;;;4.27;67.52;102580.28;6255369;28;20477;-80
2021/04/16 02:40:24;;;;;;;5.70;2.25;;;;;;;4.24;66.46;102575.09;6255469;28;20053;-81
2021/04/16 02:43:26;;;;;;;3.38;2.22;;;;;;;4.26;65.71;102575.94;6254682;28;20076;-80
2021/04/16 02:46:27;;;;;;;6.93;2.53;;;;;;;4.06;66.55;102587.19;6255718;28;20050;-81
2021/04/16 02:49:28;;;;;;;8.35;3.15;;;;;;;4.03;67.22;102581.94;6255605;28;20119;-80
2021/04/16 02:52:29;;;;;;;4.25;2.25;;;;;;;3.98;68.57;102583.66;6255021;28;20050;-79
2021/04/16 02:55:31;;;;;;;4.15;2.60;;;;;;;3.98;68.85;102573.28;6255151;28;20049;-80
2021/04/16 02:58:32;;;;;;;3.70;2.35;;;;;;;4.06;67.94;102570.69;6257266;28;20056;-80
2021/04/16 03:01:33;;;;;;;5.55;2.13;;;;;;;4.14;67.32;102570.72;6256169;28;20532;-80
2021/04/16 03:04:35;;;;;;;6.40;2.65;;;;;;;4.01;68.91;102564.63;6254329;28;20053;-78
2021/04/16 03:07:36;;;;;;;4.00;2.58;;;;;;;3.99;70.07;102571.53;6255758;28;20111;-81
2021/04/16 03:10:38;;;;;;;4.82;2.58;;;;;;;4.12;67.59;102562.91;6257118;28;20064;-80
2021/04/16 03:13:39;;;;;;;6.43;2.47;;;;;;;4.18;66.43;102562.94;6255385;28;20468;-79
2021/04/16 03:16:40;;;;;;;3.95;2.13;;;;;;;4.20;66.85;102560.31;6254920;28;20060;-80
2021/04/16 03:19:41;;;;;;;9.45;2.28;;;;;;;4.07;67.97;102565.50;6259228;28;20056;-81
2021/04/16 03:22:42;;;;;;;4.70;2.10;;;;;;;3.95;69.00;102562.88;6259790;28;20554;-81
2021/04/16 03:25:43;;;;;;;6.28;2.60;;;;;;;3.94;71.14;102571.50;6258414;28;20049;-80
2021/04/16 03:28:45;;;;;;;5.40;2.67;;;;;;;3.99;69.46;102574.13;6259581;28;20049;-81
2021/04/16 03:31:46;;;;;;;7.15;2.60;;;;;;;3.99;70.32;102579.34;6259454;28;20524;-81
2021/04/16 03:34:47;;;;;;;4.57;2.38;;;;;;;4.02;69.58;102577.63;6259271;28;20046;-80
2021/04/16 03:37:48;;;;;;;5.03;2.45;;;;;;;3.95;69.45;102577.59;6259226;28;20087;-80
2021/04/16 03:40:50;;;;;;;3.63;2.30;;;;;;;3.94;68.89;102573.25;6260316;28;20049;-81
2021/04/16 03:43:51;;;;;;;4.15;2.80;;;;;;;3.95;70.51;102578.47;6258572;28;20053;-80
2021/04/16 03:46:51;;;;;;;5.57;2.40;;;;;;;4.02;69.38;102575.03;6258283;28;20077;-80
2021/04/16 03:49:52;;;;;;;6.38;3.30;;;;;;;4.00;68.39;102575.91;6259221;28;20152;-81
2021/04/16 03:52:54;;;;;;;4.22;1.95;;;;;;;3.95;68.47;102572.38;6260267;28;20041;-80
2021/04/16 03:55:56;;;;;;;3.30;2.00;;;;;;;4.00;67.85;102571.56;6259722;28;20100;-79
2021/04/16 03:58:57;;;;;;;4.80;2.47;;;;;;;3.89;68.95;102573.25;6259248;28;20061;-79
2021/04/16 04:01:58;;;;;;;5.50;2.40;;;;;;;3.87;69.10;102566.31;6258559;28;20514;-79
2021/04/16 04:04:59;;;;;;;6.63;2.50;;;;;;;4.02;68.44;102571.56;6258184;28;20168;-79
2021/04/16 04:08:00;;;;;;;11.98;2.78;;;;;;;4.13;67.24;102567.22;6258541;28;20069;-79
2021/04/16 04:11:02;;;;;;;5.20;2.42;;;;;;;3.90;68.60;102566.31;6258352;28;20060;-80
2021/04/16 04:14:03;;;;;;;5.05;3.10;;;;;;;3.92;68.97;102569.78;6258227;28;20050;-79
2021/04/16 04:17:05;;;;;;;3.97;2.22;;;;;;;3.86;69.14;102569.75;6261447;28;20128;-79
2021/04/16 04:20:11;;;;;;;5.03;2.78;;;;;;;3.76;69.00;102568.84;6259529;28;20045;-79
2021/04/16 04:23:12;;;;;;;4.72;2.55;;;;;;;3.79;69.64;102577.53;6259786;28;20055;-79
2021/04/16 04:26:13;;;;;;;7.18;2.70;;;;;;;3.85;67.93;102576.69;6260273;28;20053;-79
2021/04/16 04:29:16;;;;;;;6.35;2.70;;;;;;;3.72;70.26;102577.50;6260362;28;20469;-79
2021/04/16 04:32:17;;;;;;;9.10;2.47;;;;;;;3.65;70.99;102570.53;6281932;22;20053;-72
2021/04/16 04:35:18;;;;;;;4.78;2.90;;;;;;;3.72;68.69;102574.91;6272932;28;20052;-72
2021/04/16 04:38:19;;;;;;;6.43;2.47;;;;;;;3.61;70.41;102576.59;6273449;28;20501;-72
2021/04/16 04:41:21;;;;;;;6.68;2.75;;;;;;;3.54;70.43;102578.28;6249311;28;20068;-72
2021/04/16 04:44:22;;;;;;;5.82;2.33;;;;;;;3.51;72.35;102576.53;6248478;28;20057;-73
2021/04/16 04:47:23;;;;;;;7.18;2.97;;;;;;;3.51;70.16;102576.53;6248879;28;20053;-72
2021/04/16 04:50:25;;;;;;;4.50;2.30;;;;;;;3.49;72.15;102577.38;6248505;28;20494;-72
2021/04/16 04:53:26;;;;;;;4.88;2.75;;;;;;;3.49;69.90;102566.97;6248202;28;20052;-73
2021/04/16 04:56:28;;;;;;;5.75;3.00;;;;;;;3.46;70.05;102562.66;6248466;28;20049;-73
2021/04/16 04:59:29;;;;;;;6.68;2.97;;;;;;;3.46;71.53;102567.00;6248242;28;20061;-73
2021/04/16 05:02:30;;;;;;;5.72;2.88;;;;;;;3.53;69.05;102568.75;6248174;28;20413;-72
2021/04/16 05:05:31;;;;;;;10.93;2.97;;;;;;;3.43;70.70;102565.22;6248010;28;20073;-72
2021/04/16 05:08:32;;;;;;;6.43;2.63;;;;;;;3.49;70.19;102562.66;6248282;28;20132;-72
2021/04/16 05:11:33;;;;;;;12.10;2.63;;;;;;;3.55;70.76;102564.44;6247841;28;20122;-72
2021/04/16 05:14:35;;;;;;;5.43;2.38;;;;;;;3.40;70.85;102565.19;6247874;28;20053;-72
2021/04/16 05:17:36;;;;;;;7.00;2.55;;;;;;;3.45;70.56;102573.91;6247983;28;20056;-72
2021/04/16 05:20:37;;;;;;;4.97;2.63;;;;;;;3.51;70.48;102578.28;6247993;28;20045;-73
2021/04/16 05:23:38;;;;;;;5.82;2.53;;;;;;;3.38;71.32;102579.06;6247872;28;20045;-72
2021/04/16 05:26:40;;;;;;;7.93;2.60;;;;;;;3.39;70.90;102581.66;6247656;28;20127;-72
2021/04/16 05:29:41;;;;;;;5.75;2.72;;;;;;;3.52;69.69;102580.00;6249163;28;20422;-72
2021/04/16 05:32:44;;;;;;;11.50;2.88;;;;;;;3.60;70.09;102575.72;6247912;28;20084;-72
2021/04/16 05:35:45;;;;;;;4.55;2.42;;;;;;;3.45;71.20;102584.31;6247615;28;20080;-72
2021/04/16 05:38:46;;;;;;;19.25;5.43;;;;;;;3.46;72.23;102580.84;6247830;28;20053;-72
2021/04/16 05:41:49;;;;;;;6.25;2.95;;;;;;;3.54;71.37;102586.06;6247637;28;20054;-72
2021/04/16 05:44:49;;;;;;;8.15;2.67;;;;;;;3.62;70.01;102584.38;6235104;28;20049;-72
2021/04/16 05:47:50;;;;;;;11.80;3.15;;;;;;;3.70;70.45;102582.69;6234858;28;20070;-72
2021/04/16 05:50:51;;;;;;;6.85;2.95;;;;;;;3.76;71.92;102576.66;6232556;28;20045;-72
2021/04/16 05:53:52;;;;;;;11.93;2.53;;;;;;;4.00;69.24;102570.69;6232290;28;20075;-72
2021/04/16 05:56:54;;;;;;;8.75;2.80;;;;;;;4.12;69.44;102575.03;6234947;28;20057;-72
2021/04/16 05:59:55;;;;;;;6.80;2.72;;;;;;;3.94;69.58;102574.13;6232183;28;20517;-72
2021/04/16 06:02:56;;;;;;;6.70;2.45;;;;;;;4.05;69.75;102574.19;6229030;28;20077;-72
2021/04/16 06:05:58;;;;;;;4.20;2.58;;;;;;;4.04;71.20;102578.50;6231802;28;20046;-72
2021/04/16 06:08:59;;;;;;;9.35;3.15;;;;;;;4.12;69.94;102578.50;6234607;28;20129;-72
2021/04/16 06:12:01;;;;;;;9.93;2.67;;;;;;;4.19;71.38;102580.28;6234178;28;20164;-72
2021/04/16 06:15:02;;;;;;;5.88;2.47;;;;;;;4.18;69.14;102580.25;6231695;28;20049;-72
2021/04/16 06:18:03;;;;;;;5.68;2.60;;;;;;;4.23;69.68;102575.97;6231599;28;20057;-71
2021/04/16 06:21:06;;;;;;;7.53;2.78;;;;;;;4.22;70.23;102580.28;6233647;28;20644;-72
2021/04/16 06:24:07;;;;;;;4.35;2.30;;;;;;;4.23;69.36;102578.56;6232061;28;20050;-72
2021/04/16 06:27:09;;;;;;;5.07;2.60;;;;;;;4.25;69.30;102572.47;6233093;28;20111;-72
2021/04/16 06:30:13;;;;;;;9.18;2.95;;;;;;;4.39;67.82;102575.09;6232516;28;20049;-71
2021/04/16 06:33:25;;;;;;;4.70;2.20;;;;;;;4.33;69.13;102578.56;6233901;28;20581;-72
2021/04/16 06:36:25;;;;;;;7.60;2.35;;;;;;;4.29;67.91;102574.22;6246727;28;20049;-73
2021/04/16 06:39:27;;;;;;;4.18;2.28;;;;;;;4.45;66.61;102569.94;6246309;28;20466;-72
2021/04/16 06:42:30;;;;;;;6.90;2.85;;;;;;;4.18;67.27;102569.84;6246279;28;20394;-72
2021/04/16 06:45:32;;;;;;;10.57;2.80;;;;;;;4.29;67.62;102556.00;6246318;28;20513;-73
2021/04/16 06:48:33;;;;;;;8.80;2.58;;;;;;;4.16;67.32;102558.59;6246501;28;20057;-72
2021/04/16 06:51:41;;;;;;;3.25;2.25;;;;;;;4.20;66.93;102555.13;6246342;28;20064;-73
2021/04/16 06:54:50;;;;;;;7.30;2.70;;;;;;;4.19;67.24;102559.47;6248787;28;20409;-72
2021/04/16 06:57:57;;;;;;;6.63;2.67;;;;;;;4.24;68.67;102560.34;6251255;28;20048;-72
2021/04/16 07:01:20;;;;;;;6.18;2.47;;;;;;;4.37;67.76;102553.44;6251128;28;20054;-72
2021/04/16 07:04:30;;;;;;;5.68;3.00;;;;;;;4.52;68.42;102548.22;6250655;28;20042;-73
2021/04/16 07:07:33;;;;;;;;;;;;;;;4.65;68.30;102553.44;6251613;28;20049;-73
2021/04/16 07:10:39;;;;;;;10.15;2.70;;;;;;;4.66;68.77;102550.84;6251031;28;19951;-73
2021/04/16 07:13:41;;;;;;;13.48;2.90;;;;;;;4.62;70.11;102551.69;6250667;28;20045;-73
2021/04/16 07:16:42;;;;;;;7.78;3.03;;;;;;;4.68;71.72;102550.81;6250638;28;20526;-73
2021/04/16 07:19:43;;;;;;;12.45;3.08;;;;;;;4.97;68.09;102550.84;6250792;28;20526;-73
2021/04/16 07:22:46;;;;;;;6.60;2.53;;;;;;;5.01;68.77;102547.34;6250503;28;20049;-72
2021/04/16 07:26:05;;;;;;;6.28;2.67;;;;;;;5.01;68.90;102556.03;6235390;28;20085;-73
2021/04/16 07:29:10;;;;;;;7.22;2.50;;;;;;;4.97;70.74;102553.44;6229062;28;20528;-73
2021/04/16 07:32:34;;;;;;;10.98;3.10;;;;;;;4.96;71.33;102549.09;6226115;28;20052;-73
2021/04/16 07:35:35;;;;;;;6.38;2.53;;;;;;;5.09;70.33;102551.69;6225656;28;20060;-73
2021/04/16 07:38:36;;;;;;;7.88;3.00;;;;;;;5.20;70.12;102558.63;6225900;28;20053;-72
2021/04/16 07:41:42;;;;;;;22.63;3.30;;;;;;;5.29;70.60;102558.59;6226327;28;20133;-72
2021/04/16 07:45:01;;;;;;;12.20;3.92;;;;;;;5.36;70.07;102565.53;6240870;28;20049;-72
2021/04/16 07:48:22;;;;;;;6.57;3.20;;;;;;;5.31;70.59;102554.22;6250217;28;20083;-72
2021/04/16 07:51:28;;;;;;;6.97;3.28;;;;;;;5.49;69.27;102556.78;6250167;28;20524;-72
2021/04/16 07:54:30;;;;;;;6.85;3.65;;;;;;;5.53;69.12;102553.28;6249907;28;20085;-72
2021/04/16 07:57:33;;;;;;;6.40;3.22;;;;;;;5.71;68.80;102549.75;6249914;28;20088;-72
2021/04/16 08:00:38;;;;;;;7.85;2.88;;;;;;;5.70;68.46;102550.63;6249858;28;20485;-72
2021/04/16 08:03:48;;;;;;;10.02;3.38;;;;;;;5.76;68.05;102542.78;6249592;28;20045;-72
2021/04/16 08:06:51;;;;;;;6.32;2.72;;;;;;;5.81;69.27;102537.53;6248533;28;20078;-72
2021/04/16 08:09:52;;;;;;;17.73;4.03;;;;;;;5.82;69.21;102547.13;6249458;28;20057;-72
2021/04/16 08:13:06;;;;;;;6.50;3.30;;;;;;;5.89;69.39;102542.72;6243062;28;20042;-72
2021/04/16 08:16:13;;;;;;;12.32;2.65;;;;;;;6.09;68.10;102538.31;6226737;28;20414;-71
2021/04/16 08:19:25;;;;;;;8.10;3.08;;;;;;;6.37;66.48;102535.53;6238936;28;20052;-71
2021/04/16 08:22:30;;;;;;;8.30;3.08;;;;;;;6.38;66.30;102532.88;6249176;28;20047;-72
2021/04/16 08:25:37;;;;;;;11.88;2.90;;;;;;;6.23;67.93;102533.88;6246910;28;20049;-72
2021/04/16 08:28:47;;;;;;;7.05;2.75;;;;;;;6.34;68.62;102536.41;6240059;28;20417;-71
2021/04/16 08:31:53;;;;;;;8.30;4.00;;;;;;;6.39;67.00;102539.84;6223442;28;20050;-71
2021/04/16 08:35:00;;;;;;;4.55;2.45;;;;;;;6.44;67.89;102537.19;6229171;28;20057;-73
2021/04/16 08:38:05;;;;;;;17.98;5.78;;;;;;;6.51;68.83;102538.91;6238391;28;20049;-73
2021/04/16 08:41:11;;;;;;;16.58;3.28;;;;;;;6.89;66.14;102542.94;6224983;28;20050;-73
2021/04/16 08:44:14;;;;;;;6.72;2.70;;;;;;;6.79;65.99;102542.16;6248370;28;20045;-73
2021/04/16 08:47:23;;;;;;;6.88;2.83;;;;;;;6.79;66.78;102540.41;6249020;28;20052;-74
2021/04/16 08:50:28;;;;;;;8.50;3.70;;;;;;;7.02;65.55;102536.69;6241379;28;20454;-72
2021/04/16 08:53:30;;;;;;;9.35;3.17;;;;;;;7.16;64.23;102528.72;6223943;28;20049;-72
2021/04/16 08:56:35;;;;;;;9.23;2.90;;;;;;;7.28;64.21;102534.69;6223899;28;20184;-73
2021/04/16 08:59:54;;;;;;;14.77;3.45;;;;;;;7.19;63.86;102532.19;6233289;28;20107;-72
2021/04/16 09:02:58;;;;;;;;;;;;;;;7.31;63.22;102534.66;6223849;28;20061;-71
2021/04/16 09:06:02;;;;;;;4.28;2.15;;;;;;;7.20;63.51;102527.81;6223619;28;19928;-71
2021/04/16 09:09:05;;;;;;;8.05;2.28;;;;;;;7.33;60.85;102532.88;6223431;28;20061;-71
2021/04/16 09:12:07;;;;;;;7.75;2.55;;;;;;;7.37;60.45;102531.13;6223205;28;20055;-72
2021/04/16 09:15:30;;;;;;;34.33;2.80;;;;;;;7.43;60.71;102528.41;6223305;28;20049;-71
2021/04/16 09:18:31;;;;;;;5.13;1.70;;;;;;;7.49;59.90;102524.84;6222951;28;20057;-72
2021/04/16 09:21:32;;;;;;;5.93;2.38;;;;;;;7.72;59.35;102521.94;6223286;28;20050;-72
2021/04/16 09:24:44;;;;;;;21.05;2.67;;;;;;;7.74;60.14;102525.44;6222952;28;20455;-72
2021/04/16 09:27:45;;;;;;;4.05;2.13;;;;;;;7.89;59.33;102520.84;6223223;28;20490;-72
2021/04/16 09:30:45;;;;;;;58.55;3.70;;;;;;;7.92;58.78;102513.84;6222878;28;20192;-72
2021/04/16 09:33:48;;;;;;;14.23;2.58;;;;;;;7.99;61.10;102520.72;6223015;28;20046;-72
2021/04/16 09:36:52;;;;;;;12.25;2.78;;;;;;;8.02;59.94;102515.44;6222787;28;20137;-72
2021/04/16 09:40:32;;;;;;;7.45;2.45;;;;;;;8.31;59.42;102512.38;6222969;28;20498;-72
2021/04/16 09:43:34;;;;;;;119.22;6.93;;;;;;;8.48;59.61;102512.16;6182788;28;20136;-73
2021/04/16 09:46:50;;;;;;;11.35;3.30;;;;;;;8.42;57.35;102510.50;6222762;28;20425;-72
2021/04/16 09:50:00;;;;;;;6.90;2.30;;;;;;;8.50;58.89;102505.16;6219521;28;20053;-74
2021/04/16 09:53:16;;;;;;;5.30;2.58;;;;;;;8.80;57.71;102509.84;6222495;28;20045;-73
2021/04/16 09:56:19;;;;;;;4.80;2.30;;;;;;;9.01;53.98;102510.38;6222130;28;20045;-74
2021/04/16 09:59:29;;;;;;;5.22;2.38;;;;;;;9.21;50.35;102502.13;6221033;28;20110;-75
2021/04/16 10:02:37;;;;;;;6.07;2.50;;;;;;;9.04;53.98;102497.22;6221712;28;20042;-71
2021/04/16 10:05:39;;;;;;;9.55;2.33;;;;;;;9.11;51.87;102490.94;6222456;28;20494;-74
2021/04/16 10:08:43;;;;;;;12.70;2.40;;;;;;;9.18;55.00;102495.19;6222359;28;20050;-72
2021/04/16 10:11:47;;;;;;;3.92;2.00;;;;;;;9.35;53.66;102497.47;6222303;28;20502;-72
2021/04/16 10:14:48;;;;;;;3.05;1.83;;;;;;;9.49;52.07;102495.41;6222435;28;20057;-73
2021/04/16 10:17:54;;;;;;;62.38;5.47;;;;;;;9.62;50.30;102483.75;6222211;28;20500;-74
2021/04/16 10:21:02;;;;;;;6.30;2.20;;;;;;;9.69;51.74;102481.03;6222451;28;20509;-72
2021/04/16 12:39:58;;;;;;;11.32;1.90;;;;;;;14.00;34.09;102392.91;6255038;28;20136;-79
2021/04/16 12:43:02;;;;;;;37.83;3.80;;;;;;;13.88;35.57;102387.19;6255509;28;20084;-80
2021/04/16 12:46:05;;;;;;;5.93;1.90;;;;;;;13.98;35.56;102397.38;6255358;28;20085;-80
2021/04/16 12:49:08;;;;;;;3.17;2.03;;;;;;;13.91;33.61;102389.69;6254767;28;20512;-79
2021/04/16 12:52:12;;;;;;;4.20;1.80;;;;;;;13.87;32.73;102377.53;6254919;28;20060;-80
2021/04/16 12:55:14;;;;;;;3.85;1.70;;;;;;;13.66;35.03;102378.41;6256150;28;20049;-80
2021/04/16 12:58:20;;;;;;;3.92;2.00;;;;;;;13.56;35.03;102384.97;6255697;28;20060;-80
2021/04/16 13:01:26;;;;;;;65.30;5.47;;;;;;;13.37;36.72;102380.41;6242952;28;20080;-78
2021/04/16 13:04:27;;;;;;;10.57;1.83;;;;;;;13.43;37.41;102376.66;6238728;28;20052;-80
2021/04/16 13:07:28;;;;;;;4.93;1.63;;;;;;;13.51;34.95;102381.66;6246000;28;20057;-80
2021/04/16 13:10:30;;;;;;;9.57;1.77;;;;;;;13.53;34.72;102385.09;6241165;28;20424;-80
2021/04/16 13:13:31;;;;;;;4.60;1.80;;;;;;;13.30;34.50;102378.06;6242032;28;20050;-79
2021/04/16 13:16:32;;;;;;;2.28;1.60;;;;;;;13.16;33.25;102371.50;6245946;28;20091;-80
2021/04/16 13:19:37;;;;;;;4.03;2.00;;;;;;;13.20;36.72;102380.16;6242048;28;20053;-79
2021/04/16 13:22:38;;;;;;;1.88;1.35;;;;;;;13.21;32.07;102369.53;6241900;28;20048;-78
2021/04/16 13:25:39;;;;;;;4.47;1.70;;;;;;;13.01;33.84;102365.94;6233595;28;20073;-78
2021/04/16 13:28:40;;;;;;;29.40;2.40;;;;;;;12.79;33.71;102372.00;6238390;28;20046;-78
2021/04/16 13:31:41;;;;;;;11.70;2.10;;;;;;;12.78;35.18;102367.66;6255496;28;20108;-81
2021/04/16 13:34:44;;;;;;;33.20;3.15;;;;;;;12.86;35.25;102368.25;6245557;28;20563;-80
2021/04/16 13:37:45;;;;;;;2.40;1.60;;;;;;;13.16;35.97;102376.78;6249698;28;20049;-81
2021/04/16 13:40:46;;;;;;;8.52;1.77;;;;;;;13.28;35.98;102370.22;6256725;28;20433;-80
2021/04/16 13:43:49;;;;;;;6.03;1.85;;;;;;;13.34;36.63;102362.03;6255807;28;20042;-80
2021/04/16 13:46:51;;;;;;;4.03;1.70;;;;;;;13.70;36.87;102362.34;6255785;28;20072;-80
2021/04/16 13:49:56;;;;;;;3.72;1.85;;;;;;;13.67;34.35;102361.63;6255585;28;20049;-80
2021/04/16 13:52:58;;;;;;;5.45;1.48;;;;;;;13.67;33.86;102362.50;6252061;28;20053;-80
2021/04/16 13:56:01;;;;;;;3.78;1.75;;;;;;;13.73;34.28;102353.47;6257826;28;20099;-80
2021/04/16 13:59:02;;;;;;;3.88;1.73;;;;;;;13.54;32.95;102361.28;6256413;28;20485;-79
2021/04/16 14:02:03;;;;;;;3.13;1.77;;;;;;;13.37;32.93;102358.44;6256431;28;20045;-78
2021/04/16 14:05:08;;;;;;;4.47;1.73;;;;;;;13.31;38.25;102351.63;6250257;28;20053;-78
2021/04/16 14:08:21;;;;;;;4.13;1.90;;;;;;;13.68;35.19;102353.66;6256592;28;20050;-80
2021/04/16 14:11:23;;;;;;;11.73;1.92;;;;;;;14.02;34.96;102352.25;6255447;28;20060;-80
2021/04/16 14:14:26;;;;;;;4.40;1.38;;;;;;;14.32;35.33;102354.53;6255677;28;20045;-80
2021/04/16 14:17:36;;;;;;;16.15;3.22;;;;;;;14.32;32.26;102350.09;6256790;28;20049;-80
2021/04/16 14:20:39;;;;;;;3.65;1.33;;;;;;;14.53;30.91;102348.31;6256491;28;20410;-79
2021/04/16 14:23:41;;;;;;;3.45;1.05;;;;;;;14.51;33.69;102352.81;6255549;28;20045;-80
2021/04/16 14:26:43;;;;;;;3.50;1.20;;;;;;;14.58;33.63;102343.69;6256899;28;20053;-80
2021/04/16 14:29:44;;;;;;;4.05;1.50;;;;;;;14.36;31.77;102358.75;6257120;28;20045;-80
2021/04/16 14:32:48;;;;;;;3.72;1.50;;;;;;;14.33;30.80;102348.28;6256982;28;20133;-80
2021/04/16 14:35:49;;;;;;;2.78;1.30;;;;;;;13.90;33.76;102347.50;6256981;28;20050;-80
2021/04/16 14:38:51;;;;;;;2.97;1.20;;;;;;;13.89;35.08;102340.47;6257307;28;20073;-80
2021/04/16 14:41:55;;;;;;;3.60;1.63;;;;;;;13.77;34.06;102341.00;6257740;28;20066;-80
2021/04/16 14:44:56;;;;;;;5.10;1.77;;;;;;;13.68;37.04;102342.22;6249605;28;20046;-80
2021/04/16 14:47:57;;;;;;;2.55;1.30;;;;;;;13.76;36.84;102333.97;6242318;28;20056;-80
2021/04/16 14:51:01;;;;;;;2.03;1.35;;;;;;;13.83;34.94;102336.28;6244020;28;20076;-80
2021/04/16 14:54:19;;;;;;;2.45;1.40;;;;;;;13.93;32.63;102342.06;6249027;28;20053;-80
2021/04/16 14:57:25;;;;;;;2.10;1.48;;;;;;;13.53;33.57;102341.03;6257731;28;20053;-80
2021/04/16 15:00:29;;;;;;;3.65;1.50;;;;;;;13.49;34.08;102339.47;6257997;28;20084;-80
2021/04/16 15:03:31;;;;;;;6.65;1.40;;;;;;;13.67;34.20;102340.47;6256705;28;20081;-79
2021/04/16 15:06:32;;;;;;;5.18;1.38;;;;;;;13.70;34.84;102346.50;6258019;28;20058;-80
2021/04/16 15:09:40;;;;;;;4.43;1.35;;;;;;;13.72;36.15;102333.25;6258215;28;20417;-80
2021/04/16 15:12:43;;;;;;;4.75;1.40;;;;;;;13.96;34.82;102336.66;6258047;28;20080;-80
2021/04/16 15:15:46;;;;;;;2.10;1.20;;;;;;;14.03;33.51;102337.25;6260336;28;20049;-80
2021/04/16 15:18:47;;;;;;;4.20;1.30;;;;;;;14.32;33.52;102336.00;6260374;28;20402;-80
2021/04/16 15:21:48;;;;;;;8.55;1.20;;;;;;;14.26;34.97;102334.50;6263357;28;20060;-80
2021/04/16 15:24:56;;;;;;;11.73;1.75;;;;;;;14.53;33.98;102332.44;6262933;28;20045;-80
2021/04/16 15:28:06;;;;;;;4.63;1.20;;;;;;;14.23;31.97;102337.25;6263739;28;20085;-80
2021/04/16 15:31:09;;;;;;;;;;;;;;;14.21;35.03;102339.94;6263374;28;20053;-80
2021/04/16 15:47:13;;;;;;;1.95;0.93;;;;;;;13.21;37.47;102326.44;6261655;28;20054;-80
2021/04/16 15:50:17;;;;;;;5.00;1.25;;;;;;;13.12;36.32;102319.72;6254427;28;20049;-80
2021/04/16 15:53:21;;;;;;;4.47;1.35;;;;;;;13.12;36.15;102321.50;6255301;28;20045;-80
2021/04/16 15:56:28;;;;;;;15.23;2.00;;;;;;;12.93;35.00;102316.94;6255585;28;20053;-80
2021/04/16 15:59:32;;;;;;;6.60;1.50;;;;;;;12.91;35.76;102317.94;6256450;28;20464;-80
2021/04/16 16:02:33;;;;;;;3.17;1.30;;;;;;;13.05;36.82;102320.06;6255644;28;20525;-80
2021/04/16 16:05:35;;;;;;;4.97;1.33;;;;;;;12.91;37.15;102318.78;6255302;28;20184;-79
2021/04/16 16:08:36;;;;;;;16.38;1.88;;;;;;;12.77;37.92;102314.97;6254970;28;20050;-80
2021/04/16 16:11:41;;;;;;;2.03;1.35;;;;;;;12.84;34.36;102314.66;6256580;28;20077;-79
2021/04/16 16:14:46;;;;;;;2.42;1.40;;;;;;;12.60;34.72;102319.06;6257030;28;20107;-80
2021/04/16 16:17:47;;;;;;;3.67;1.73;;;;;;;12.56;36.02;102330.66;6254244;28;20077;-77
2021/04/16 16:20:50;;;;;;;6.10;2.13;;;;;;;12.39;36.95;102327.75;6252670;28;20060;-79
2021/04/16 16:23:51;;;;;;;2.92;1.35;;;;;;;12.49;34.32;102313.34;6257213;28;20045;-80
2021/04/16 16:26:54;;;;;;;2.28;1.25;;;;;;;12.52;37.78;102321.13;6255620;28;20050;-79
2021/04/16 16:29:56;;;;;;;5.65;1.30;;;;;;;12.57;35.31;102323.59;6255962;28;20107;-79
2021/04/16 16:32:57;;;;;;;4.78;1.42;;;;;;;12.58;37.29;102320.03;6288145;23;20083;-71
2021/04/16 16:35:58;;;;;;;3.78;1.27;;;;;;;12.72;35.71;102322.16;6274028;28;20459;-71
2021/04/16 16:38:58;;;;;;;2.60;1.38;;;;;;;12.64;35.94;102325.09;6274046;28;20053;-71
2021/04/16 16:42:00;;;;;;;2.85;1.70;;;;;;;12.53;34.69;102329.88;6262562;28;20049;-72
2021/04/16 16:45:04;;;;;;;5.07;1.80;;;;;;;12.29;36.97;102342.19;6248657;28;20132;-72
2021/04/16 16:48:06;;;;;;;3.45;1.38;;;;;;;12.10;36.02;102331.41;6248732;28;20501;-72
2021/04/16 16:51:10;;;;;;;3.60;1.20;;;;;;;11.96;34.50;102339.78;6248691;28;20428;-72